createdAt,value
2022-08-03T00:01:44.605Z,0.00
2022-08-03T00:06:45.771Z,0.00
2022-08-03T00:11:46.883Z,0.00
2022-08-03T00:16:48.287Z,0.00
2022-08-03T00:21:47.471Z,0.00
2022-08-03T00:26:48.556Z,0.00
2022-08-03T00:31:52.841Z,0.00
2022-08-03T00:36:49.589Z,0.00
2022-08-03T00:41:50.773Z,0.00
2022-08-03T00:46:51.894Z,0.00
2022-08-03T00:51:53.044Z,0.00
2022-08-03T00:56:59.676Z,0.00
2022-08-03T01:01:56.124Z,0.00
2022-08-03T01:06:55.207Z,0.00
2022-08-03T01:11:59.965Z,0.00
2022-08-03T01:16:57.530Z,0.00
2022-08-03T01:21:59.650Z,0.00
2022-08-03T01:26:58.761Z,0.00
2022-08-03T01:33:00.025Z,0.00
2022-08-03T01:37:00.843Z,0.00
2022-08-03T01:41:59.963Z,0.00
2022-08-03T01:47:02.062Z,0.00
2022-08-03T01:52:04.480Z,0.00
2022-08-03T01:57:01.226Z,0.00
2022-08-03T02:02:28.779Z,0.00
2022-08-03T02:07:03.540Z,0.00
2022-08-03T02:12:02.743Z,0.00
2022-08-03T02:17:03.875Z,0.00
2022-08-03T02:22:04.981Z,0.00
2022-08-03T02:27:08.094Z,0.00
2022-08-03T02:32:08.299Z,0.00
2022-08-03T02:37:07.453Z,0.00
2022-08-03T02:42:08.571Z,0.00
2022-08-03T02:47:10.979Z,0.00
2022-08-03T02:52:12.646Z,0.00
2022-08-03T02:57:10.102Z,0.00
2022-08-03T03:02:11.231Z,0.00
2022-08-03T03:07:12.360Z,0.00
2022-08-03T03:12:12.215Z,0.00
2022-08-03T03:17:14.317Z,0.00
2022-08-03T03:22:15.707Z,0.00
2022-08-03T03:27:16.691Z,0.00
2022-08-03T03:32:15.252Z,0.00
2022-08-03T03:37:15.488Z,0.00
2022-08-03T03:42:15.774Z,0.00
2022-08-03T03:47:15.153Z,0.00
2022-08-03T03:52:15.930Z,5.62
2022-08-03T03:57:17.150Z,11.25
2022-08-03T04:02:18.384Z,22.50
2022-08-03T04:07:19.456Z,28.12
2022-08-03T04:12:20.547Z,39.38
2022-08-03T04:17:21.659Z,50.62
2022-08-03T04:22:22.768Z,67.50
2022-08-03T04:27:23.866Z,78.75
2022-08-03T04:32:26.005Z,95.62
2022-08-03T04:37:26.127Z,106.88
2022-08-03T04:42:25.296Z,123.75
2022-08-03T04:47:28.475Z,140.62
2022-08-03T04:52:28.579Z,151.88
2022-08-03T04:57:27.695Z,163.12
2022-08-03T05:02:28.829Z,174.38
2022-08-03T05:07:35.438Z,185.62
2022-08-03T05:12:33.869Z,191.25
2022-08-03T05:17:30.944Z,202.50
2022-08-03T05:22:33.095Z,213.75
2022-08-03T05:27:34.220Z,219.38
2022-08-03T05:32:33.347Z,219.38
2022-08-03T05:37:34.439Z,225.00
2022-08-03T05:42:36.988Z,230.62
2022-08-03T05:47:36.082Z,241.88
2022-08-03T05:52:37.199Z,247.50
2022-08-03T05:57:38.506Z,253.12
2022-08-03T06:02:40.597Z,253.12
2022-08-03T06:07:39.692Z,258.75
2022-08-03T06:12:40.818Z,264.38
2022-08-03T06:17:41.947Z,270.00
2022-08-03T06:22:50.836Z,275.62
2022-08-03T06:27:44.010Z,281.25
2022-08-03T06:32:43.117Z,281.25
2022-08-03T06:37:43.124Z,286.88
2022-08-03T06:42:45.242Z,292.50
2022-08-03T06:47:46.333Z,292.50
2022-08-03T06:52:46.522Z,298.12
2022-08-03T06:57:45.721Z,298.12
2022-08-03T07:02:47.820Z,298.12
2022-08-03T07:07:46.928Z,303.75
2022-08-03T07:12:55.844Z,303.75
2022-08-03T07:17:48.985Z,309.38
2022-08-03T07:22:49.130Z,309.38
2022-08-03T07:27:51.712Z,315.00
2022-08-03T07:32:50.818Z,309.38
2022-08-03T07:37:54.953Z,315.00
2022-08-03T07:42:52.117Z,309.38
2022-08-03T07:47:54.231Z,309.38
2022-08-03T07:52:51.511Z,315.00
2022-08-03T07:57:53.633Z,315.00
2022-08-03T08:02:53.779Z,315.00
2022-08-03T08:07:52.874Z,315.00
2022-08-03T08:12:54.012Z,315.00
2022-08-03T08:17:56.136Z,320.62
2022-08-03T08:22:55.231Z,320.62
2022-08-03T08:28:31.450Z,320.62
2022-08-03T08:32:58.035Z,320.62
2022-08-03T08:37:57.181Z,326.25
2022-08-03T08:42:59.339Z,331.88
2022-08-03T08:48:02.499Z,326.25
2022-08-03T08:52:59.451Z,326.25
2022-08-03T08:58:00.546Z,326.25
2022-08-03T09:03:02.667Z,326.25
2022-08-03T09:08:04.219Z,331.88
2022-08-03T09:13:04.331Z,326.25
2022-08-03T09:18:03.543Z,326.25
2022-08-03T09:23:24.706Z,331.88
2022-08-03T09:28:05.599Z,331.88
2022-08-03T09:33:04.726Z,331.88
2022-08-03T09:38:13.932Z,337.50
2022-08-03T09:43:05.831Z,337.50
2022-08-03T09:48:07.930Z,337.50
2022-08-03T09:53:07.029Z,337.50
2022-08-03T09:58:09.145Z,337.50
2022-08-03T10:03:09.321Z,337.50
2022-08-03T10:08:08.408Z,337.50
2022-08-03T10:13:09.537Z,343.12
2022-08-03T10:18:10.649Z,343.12
2022-08-03T10:23:11.791Z,343.12
2022-08-03T10:28:12.919Z,343.12
2022-08-03T10:33:51.668Z,348.75
2022-08-03T10:38:14.081Z,348.75
2022-08-03T10:43:17.246Z,348.75
2022-08-03T10:48:17.392Z,348.75
2022-08-03T10:53:18.657Z,343.12
2022-08-03T10:58:30.526Z,343.12
2022-08-03T11:03:17.144Z,343.12
2022-08-03T11:08:18.263Z,348.75
2022-08-03T11:13:19.361Z,348.75
2022-08-03T11:18:30.475Z,348.75
2022-08-03T11:24:03.047Z,348.75
2022-08-03T11:28:23.552Z,348.75
2022-08-03T11:33:22.587Z,354.38
2022-08-03T11:38:24.716Z,348.75
2022-08-03T11:43:28.978Z,348.75
2022-08-03T11:48:25.898Z,354.38
2022-08-03T11:53:25.005Z,360.00
2022-08-03T11:59:16.989Z,360.00
2022-08-03T12:03:27.133Z,360.00
2022-08-03T12:08:30.250Z,365.62
2022-08-03T12:14:10.683Z,365.62
2022-08-03T12:18:29.321Z,365.62
2022-08-03T12:23:37.395Z,371.25
2022-08-03T12:28:36.859Z,371.25
2022-08-03T12:33:31.882Z,376.88
2022-08-03T12:38:32.983Z,376.88
2022-08-03T12:43:37.665Z,376.88
2022-08-03T12:48:35.720Z,382.50
2022-08-03T12:53:35.541Z,382.50
2022-08-03T12:58:35.062Z,382.50
2022-08-03T13:03:39.641Z,382.50
2022-08-03T13:08:36.287Z,382.50
2022-08-03T13:13:35.379Z,382.50
2022-08-03T13:18:36.541Z,382.50
2022-08-03T13:23:38.223Z,388.12
2022-08-03T13:28:37.333Z,382.50
2022-08-03T13:33:40.466Z,382.50
2022-08-03T13:38:39.625Z,382.50
2022-08-03T13:43:40.931Z,376.88
2022-08-03T13:48:42.074Z,376.88
2022-08-03T13:53:44.167Z,371.25
2022-08-03T13:58:43.265Z,371.25
2022-08-03T14:03:46.379Z,371.25
2022-08-03T14:08:46.507Z,371.25
2022-08-03T14:13:46.602Z,365.62
2022-08-03T14:18:45.749Z,360.00
2022-08-03T14:23:45.205Z,365.62
2022-08-03T14:28:46.320Z,371.25
2022-08-03T14:33:49.433Z,382.50
2022-08-03T14:38:48.533Z,393.75
2022-08-03T14:44:00.638Z,405.00
2022-08-03T14:50:10.340Z,410.62
2022-08-03T14:53:49.519Z,416.25
2022-08-03T14:58:50.635Z,427.50
2022-08-03T15:03:51.727Z,444.38
2022-08-03T15:09:22.502Z,450.00
2022-08-03T15:13:52.798Z,455.62
2022-08-03T15:18:53.908Z,466.88
2022-08-03T15:23:55.025Z,466.88
2022-08-03T15:28:56.132Z,466.88
2022-08-03T15:33:58.240Z,466.88
2022-08-03T15:38:57.398Z,461.25
2022-08-03T15:43:58.485Z,461.25
2022-08-03T15:49:04.588Z,455.62
2022-08-03T15:54:00.703Z,450.00
2022-08-03T15:59:13.278Z,438.75
2022-08-03T16:03:59.749Z,438.75
2022-08-03T16:09:02.862Z,433.12
2022-08-03T16:14:13.691Z,427.50
2022-08-03T16:19:05.650Z,421.88
2022-08-03T16:24:02.827Z,410.62
2022-08-03T16:29:02.459Z,405.00
2022-08-03T16:34:03.593Z,393.75
2022-08-03T16:39:04.763Z,393.75
2022-08-03T16:44:10.001Z,382.50
2022-08-03T16:49:07.201Z,376.88
2022-08-03T16:54:12.430Z,365.62
2022-08-03T16:59:09.093Z,360.00
2022-08-03T17:04:11.216Z,348.75
2022-08-03T17:09:11.574Z,343.12
2022-08-03T17:14:12.770Z,331.88
2022-08-03T17:19:12.901Z,320.62
2022-08-03T17:24:12.853Z,309.38
2022-08-03T17:29:12.778Z,298.12
2022-08-03T17:34:14.280Z,281.25
2022-08-03T17:39:13.485Z,270.00
2022-08-03T17:44:32.986Z,253.12
2022-08-03T17:49:24.846Z,230.62
2022-08-03T17:54:18.301Z,213.75
2022-08-03T17:59:16.575Z,196.88
2022-08-03T18:04:17.628Z,174.38
2022-08-03T18:10:04.899Z,135.00
2022-08-03T18:14:16.986Z,112.50
2022-08-03T18:19:16.277Z,95.62
2022-08-03T18:24:17.852Z,61.88
2022-08-03T18:29:16.171Z,45.00
2022-08-03T18:34:32.894Z,39.38
2022-08-03T18:39:19.720Z,28.12
2022-08-03T18:44:52.995Z,22.50
2022-08-03T18:49:19.935Z,16.88
2022-08-03T18:54:45.812Z,11.25
2022-08-03T18:59:30.209Z,5.62
2022-08-03T19:04:24.362Z,0.00
2022-08-03T19:09:21.520Z,0.00
2022-08-03T19:14:28.738Z,0.00
2022-08-03T19:19:24.679Z,0.00
2022-08-03T19:24:26.086Z,0.00
2022-08-03T19:29:25.465Z,0.00
2022-08-03T19:34:26.593Z,0.00
2022-08-03T19:39:26.966Z,0.00
2022-08-03T19:44:29.386Z,0.00
2022-08-03T19:50:04.671Z,0.00
2022-08-03T19:54:32.294Z,0.00
2022-08-03T19:59:29.760Z,0.00
2022-08-03T20:04:31.947Z,0.00
2022-08-03T20:09:33.084Z,0.00
2022-08-03T20:14:30.690Z,0.00
2022-08-03T20:19:32.527Z,0.00
2022-08-03T20:24:33.207Z,0.00
2022-08-03T20:30:05.418Z,0.00
2022-08-03T20:34:33.324Z,0.00
2022-08-03T20:39:31.639Z,0.00
2022-08-03T20:44:34.788Z,0.00
2022-08-03T20:49:45.591Z,0.00
2022-08-03T20:54:34.702Z,0.00
2022-08-03T20:59:50.064Z,0.00
2022-08-03T21:04:35.973Z,0.00
2022-08-03T21:09:40.010Z,0.00
2022-08-03T21:14:37.285Z,0.00
2022-08-03T21:19:36.483Z,0.00
2022-08-03T21:24:38.609Z,0.00
2022-08-03T21:29:52.919Z,0.00
2022-08-03T21:34:37.777Z,0.00
2022-08-03T21:39:39.059Z,0.00
2022-08-03T21:44:38.986Z,0.00
2022-08-03T21:50:07.621Z,0.00
2022-08-03T21:54:41.138Z,0.00
2022-08-03T21:59:41.317Z,0.00
2022-08-03T22:04:53.115Z,0.00
2022-08-03T22:09:50.092Z,0.00
2022-08-03T22:14:42.504Z,0.00
2022-08-03T22:19:44.592Z,0.00
2022-08-03T22:24:41.727Z,0.00
2022-08-03T22:29:42.858Z,0.00
2022-08-03T22:34:43.978Z,0.00
2022-08-03T22:39:45.100Z,0.00
2022-08-03T22:44:46.220Z,0.00
2022-08-03T22:49:51.314Z,0.00
2022-08-03T22:54:47.249Z,0.00
2022-08-03T22:59:48.413Z,0.00
2022-08-03T23:04:50.507Z,0.00
2022-08-03T23:09:50.622Z,0.00
2022-08-03T23:14:49.729Z,0.00
2022-08-03T23:19:50.830Z,0.00
2022-08-03T23:24:52.097Z,0.00
2022-08-03T23:29:55.207Z,0.00
2022-08-03T23:34:54.336Z,0.00
2022-08-03T23:39:57.447Z,0.00
2022-08-03T23:44:56.597Z,0.00
2022-08-03T23:49:56.458Z,0.00
2022-08-03T23:54:58.660Z,0.00
2022-08-03T23:59:57.753Z,0.00
